Time;durP1;ratioP1;P1;durP2;ratioP2;P2;SDS_P1;SDS_P2;PMS_P1;PMS_P2;Temp;Humidity;BMP_temperature;BMP_pressure;BME280_temperature;BME280_humidity;BME280_pressure;Samples;Min_cycle;Max_cycle;Signal;HPM_P1;HPM_P2
2023/06/10 00:01:01;;;;;;;10.70;10.40;;;;;;;-141.02;100.00;105966.59;5113645;28;20264;-57
2023/06/10 00:03:28;;;;;;;10.65;10.35;;;;;;;-141.02;100.00;105716.31;5113348;28;20193;-61
2023/06/10 00:05:55;;;;;;;10.60;10.30;;;;;;;-141.02;100.00;105716.31;5113410;28;20204;-66
2023/06/10 00:08:22;;;;;;;10.68;10.38;;;;;;;-141.02;100.00;105716.31;5113578;28;20232;-64
2023/06/10 00:10:51;;;;;;;11.20;10.90;;;;;;;-141.02;100.00;105466.03;5113604;28;20200;-56
2023/06/10 00:13:18;;;;;;;11.70;11.40;;;;;;;-141.02;100.00;105215.78;5113205;28;20232;-57
2023/06/10 00:15:45;;;;;;;11.65;11.35;;;;;;;-141.02;100.00;105215.78;5113228;28;20577;-63
2023/06/10 00:18:12;;;;;;;12.05;11.68;;;;;;;-141.02;100.00;104965.56;5113570;28;20254;-56
2023/06/10 00:20:39;;;;;;;10.90;10.60;;;;;;;-141.02;100.00;104965.56;5112350;28;20797;-65
2023/06/10 00:23:08;;;;;;;10.45;10.15;;;;;;;-141.02;100.00;105215.78;5113375;28;20276;-56
2023/06/10 00:25:35;;;;;;;10.38;10.07;;;;;;;-141.02;100.00;105466.03;5113377;28;20552;-65
2023/06/10 00:28:03;;;;;;;10.68;10.38;;;;;;;-141.02;100.00;105215.78;5113076;28;20242;-66
2023/06/10 00:30:31;;;;;;;10.82;10.52;;;;;;;-141.02;100.00;105215.78;5112880;28;20675;-62
2023/06/10 00:32:58;;;;;;;10.73;10.43;;;;;;;-141.02;100.00;105215.78;5113261;28;20276;-56
2023/06/10 00:35:25;;;;;;;11.73;11.43;;;;;;;-141.02;100.00;105215.78;5112858;28;20655;-66
2023/06/10 00:37:52;;;;;;;11.60;11.30;;;;;;;-141.02;100.00;104965.56;5113137;28;20224;-66
2023/06/10 00:43:42;;;;;;;10.50;10.20;;;;;;;-141.02;100.00;104965.56;5111559;28;20687;-59
2023/06/10 00:46:09;;;;;;;10.25;9.95;;;;;;;-141.02;100.00;105215.78;5112783;28;20228;-57
2023/06/10 00:48:36;;;;;;;10.40;10.10;;;;;;;-141.02;100.00;104965.56;5112708;28;20678;-66
2023/06/10 00:51:03;;;;;;;10.00;9.70;;;;;;;-141.02;100.00;105215.78;5112601;28;20704;-66
2023/06/10 00:53:30;;;;;;;9.80;9.50;;;;;;;-141.02;100.00;105466.03;5112969;28;20193;-56
2023/06/10 00:55:58;;;;;;;9.82;9.52;;;;;;;-141.02;100.00;105716.31;5113455;28;20589;-56
2023/06/10 01:01:48;;;;;;;9.88;9.57;;;;;;;-141.02;100.00;105215.78;5112887;28;20307;-66
2023/06/10 01:05:09;;;;;;;10.10;9.80;;;;;;;-141.02;100.00;105215.78;5112554;28;20224;-66
2023/06/10 01:11:01;;;;;;;10.00;9.70;;;;;;;-141.02;100.00;104965.56;5112605;28;20176;-65
2023/06/10 01:13:31;;;;;;;9.80;9.50;;;;;;;-141.02;100.00;104965.56;5113592;28;20201;-65
2023/06/10 01:15:59;;;;;;;10.48;10.18;;;;;;;-141.02;100.00;104965.56;5113038;28;20192;-56
2023/06/10 01:18:32;;;;;;;9.80;9.50;;;;;;;-141.02;100.00;104965.56;5112688;28;20215;-56
2023/06/10 01:21:00;;;;;;;10.10;9.80;;;;;;;-141.02;100.00;105215.78;5112291;28;20705;-61
2023/06/10 01:23:28;;;;;;;11.10;10.80;;;;;;;-141.02;100.00;105466.03;5112604;28;20201;-56
2023/06/10 01:26:00;;;;;;;11.68;11.38;;;;;;;-141.02;100.00;105466.03;5112677;28;20252;-62
2023/06/10 01:29:10;;;;;;;11.50;11.20;;;;;;;-141.02;100.00;105716.31;5112565;28;20232;-59
2023/06/10 01:32:03;;;;;;;12.82;12.43;;;;;;;-141.02;100.00;105966.59;5112256;28;20200;-63
2023/06/10 01:34:32;;;;;;;12.30;11.90;;;;;;;-141.02;100.00;106717.56;5116433;28;20189;-60
2023/06/10 01:37:05;;;;;;;13.70;13.30;;;;;;;-141.02;100.00;107218.31;5116589;28;20280;-60
2023/06/10 01:39:53;;;;;;;12.90;12.50;;;;;;;-141.02;100.00;107719.09;5116232;28;20193;-60
2023/06/10 01:42:21;;;;;;;14.52;14.02;;;;;;;-141.02;100.00;107969.53;5110921;28;20237;-62
2023/06/10 01:44:48;;;;;;;13.75;13.35;;;;;;;-141.02;100.00;107971.50;5116176;28;20630;-61
2023/06/10 01:47:15;;;;;;;19.08;18.27;;;;;;;-141.02;100.00;107971.50;5116413;28;20193;-64
2023/06/10 01:49:42;;;;;;;19.10;18.30;;;;;;;-141.02;100.00;107971.50;5116354;28;20197;-63
2023/06/10 01:52:09;;;;;;;18.67;17.88;;;;;;;-141.02;100.00;107971.50;5115992;28;20304;-60
2023/06/10 01:54:36;;;;;;;17.63;16.92;;;;;;;-141.02;100.00;107971.50;5115934;28;20284;-65
2023/06/10 01:57:06;;;;;;;17.52;16.83;;;;;;;-141.02;100.00;107971.50;5116233;28;20225;-58
2023/06/10 01:59:33;;;;;;;16.30;15.70;;;;;;;-141.02;100.00;107971.50;5116143;28;20189;-58
2023/06/10 02:02:00;;;;;;;16.95;16.35;;;;;;;-141.02;100.00;107971.50;5116030;28;20255;-58
2023/06/10 02:04:27;;;;;;;17.00;16.40;;;;;;;-141.02;100.00;107971.50;5116904;28;20232;-62
2023/06/10 02:06:55;;;;;;;16.30;15.70;;;;;;;-141.02;100.00;107971.50;5115726;28;20287;-57
2023/06/10 02:09:22;;;;;;;16.42;15.82;;;;;;;-141.02;100.00;107971.50;5115644;28;20193;-62
2023/06/10 02:11:49;;;;;;;16.80;16.20;;;;;;;-141.02;100.00;107971.50;5115769;28;20200;-62
2023/06/10 02:14:18;;;;;;;15.65;15.15;;;;;;;-141.02;100.00;107971.50;5115573;28;20232;-57
2023/06/10 02:16:46;;;;;;;14.90;14.40;;;;;;;-141.02;100.00;107971.50;5115639;28;20667;-56
2023/06/10 02:19:13;;;;;;;16.10;15.60;;;;;;;-141.02;100.00;107971.50;5115531;28;20244;-62
2023/06/10 02:21:40;;;;;;;15.00;14.50;;;;;;;-141.02;100.00;107971.50;5115459;28;20319;-56
2023/06/10 02:24:08;;;;;;;15.55;15.05;;;;;;;-141.02;100.00;107971.50;5115433;28;20233;-62
2023/06/10 02:26:35;;;;;;;14.75;14.30;;;;;;;-141.02;100.00;107971.50;5115370;28;20581;-57
2023/06/10 02:29:03;;;;;;;14.55;14.15;;;;;;;-141.02;100.00;107971.50;5115615;28;20288;-61
2023/06/10 02:31:31;;;;;;;13.30;12.90;;;;;;;-141.02;100.00;107971.50;5115856;28;20261;-57
2023/06/10 02:33:59;;;;;;;13.48;13.07;;;;;;;-141.02;100.00;107971.50;5115828;28;20197;-60
2023/06/10 02:36:28;;;;;;;12.90;12.50;;;;;;;-141.02;100.00;107971.50;5115157;28;20613;-59
2023/06/10 02:38:55;;;;;;;13.70;13.30;;;;;;;-141.02;100.00;107971.50;5115088;28;20218;-63
2023/06/10 02:41:23;;;;;;;13.40;13.00;;;;;;;-141.02;100.00;107971.50;5115598;28;20263;-61
2023/06/10 02:43:50;;;;;;;14.18;13.77;;;;;;;-141.02;100.00;107971.50;5114183;28;20225;-57
2023/06/10 02:49:50;;;;;;;15.45;14.95;;;;;;;-141.02;100.00;107971.50;5115340;28;20272;-59
2023/06/10 02:52:17;;;;;;;12.95;12.55;;;;;;;-141.02;100.00;107971.50;5115209;28;20197;-62
2023/06/10 02:54:45;;;;;;;12.63;12.23;;;;;;;-141.02;100.00;107971.50;5115160;28;20272;-62
2023/06/10 02:57:14;;;;;;;13.50;13.10;;;;;;;-141.02;100.00;107971.50;5114724;28;20583;-62
2023/06/10 02:59:41;;;;;;;13.27;12.88;;;;;;;-141.02;100.00;107971.50;5114783;28;20247;-62
2023/06/10 03:02:08;;;;;;;12.80;12.40;;;;;;;-141.02;100.00;107971.50;5114592;27;20228;-60
2023/06/10 03:04:37;;;;;;;12.90;12.50;;;;;;;-141.02;100.00;107971.50;5114966;28;20569;-56
2023/06/10 03:07:07;;;;;;;12.98;12.57;;;;;;;-141.02;100.00;107971.50;5114973;28;20189;-57
2023/06/10 03:09:34;;;;;;;12.32;12.02;;;;;;;-141.02;100.00;107971.50;5114880;28;20574;-62
2023/06/10 03:12:01;;;;;;;11.15;10.85;;;;;;;-141.02;100.00;107971.50;5114845;28;20193;-56
2023/06/10 03:14:28;;;;;;;11.13;10.82;;;;;;;-141.02;100.00;107971.50;5114376;28;20240;-58
2023/06/10 03:16:55;;;;;;;11.85;11.55;;;;;;;-141.02;100.00;107971.50;5114455;28;20709;-57
2023/06/10 03:19:23;;;;;;;13.18;12.77;;;;;;;-141.02;100.00;107971.50;5114576;28;20679;-62
2023/06/10 03:21:56;;;;;;;13.00;12.60;;;;;;;-141.02;100.00;107971.50;5114442;28;20319;-63
2023/06/10 03:24:25;;;;;;;12.70;12.30;;;;;;;-141.02;100.00;107971.50;5114486;28;20196;-62
2023/06/10 03:26:52;;;;;;;11.85;11.55;;;;;;;-141.02;100.00;107971.50;5115094;28;20220;-63
2023/06/10 03:29:19;;;;;;;12.07;11.77;;;;;;;-141.02;100.00;107971.50;5114420;28;20228;-57
2023/06/10 03:31:46;;;;;;;10.70;10.40;;;;;;;-141.02;100.00;107971.50;5114060;28;20709;-57
2023/06/10 03:34:13;;;;;;;12.40;12.00;;;;;;;-141.02;100.00;107971.50;5114370;28;20272;-64
2023/06/10 03:36:42;;;;;;;12.00;11.70;;;;;;;-141.02;100.00;107971.50;5114232;28;20197;-63
2023/06/10 03:39:09;;;;;;;11.52;11.23;;;;;;;-141.02;100.00;107971.50;5114223;28;20200;-58
2023/06/10 03:41:38;;;;;;;11.73;11.43;;;;;;;-141.02;100.00;107971.50;5114107;28;20225;-59
2023/06/10 03:44:05;;;;;;;11.65;11.35;;;;;;;-141.02;100.00;107971.50;5113973;28;20282;-66
2023/06/10 03:46:32;;;;;;;11.80;11.50;;;;;;;-141.02;100.00;107971.50;5113834;27;20288;-66
2023/06/10 03:49:01;;;;;;;12.60;12.20;;;;;;;-141.02;100.00;107971.50;5113669;28;20193;-64
2023/06/10 03:51:27;;;;;;;12.90;12.50;;;;;;;-141.02;100.00;107971.50;5113693;28;20205;-66
2023/06/10 03:53:54;;;;;;;12.90;12.50;;;;;;;-141.02;100.00;107971.50;5113918;28;20299;-59
2023/06/10 03:56:21;;;;;;;15.00;14.50;;;;;;;-141.02;100.00;107971.50;5113803;28;20246;-66
2023/06/10 03:58:50;;;;;;;13.77;13.38;;;;;;;-141.02;100.00;107971.50;5114106;28;20200;-58
2023/06/10 04:01:20;;;;;;;15.10;14.60;;;;;;;-141.02;100.00;107971.50;5113726;28;20259;-57
2023/06/10 04:03:48;;;;;;;13.80;13.40;;;;;;;-141.02;100.00;107971.50;5114088;28;20586;-64
2023/06/10 04:06:16;;;;;;;15.07;14.57;;;;;;;-141.02;100.00;107971.50;5113949;28;20197;-65
2023/06/10 04:08:43;;;;;;;15.43;14.93;;;;;;;-141.02;100.00;107971.50;5113385;28;20197;-60
2023/06/10 04:11:10;;;;;;;16.13;15.52;;;;;;;-141.02;100.00;107971.50;5113342;28;20197;-57
2023/06/10 04:13:37;;;;;;;16.65;16.05;;;;;;;-141.02;100.00;107971.50;5113249;28;20189;-64
2023/06/10 04:16:06;;;;;;;17.10;16.50;;;;;;;-141.02;100.00;107971.50;5113801;28;20601;-58
2023/06/10 04:18:33;;;;;;;16.30;15.70;;;;;;;-141.02;100.00;107971.50;5113485;28;20242;-60
2023/06/10 04:21:01;;;;;;;15.13;14.63;;;;;;;-141.02;100.00;107971.50;5113366;28;20221;-58
2023/06/10 04:23:28;;;;;;;13.60;13.20;;;;;;;-141.02;100.00;107971.50;5113373;28;20208;-62
2023/06/10 04:25:55;;;;;;;13.88;13.48;;;;;;;-141.02;100.00;107971.50;5113382;28;20228;-63
2023/06/10 04:28:22;;;;;;;14.30;13.80;;;;;;;-141.02;100.00;107971.50;5113324;28;20229;-64
2023/06/10 04:30:49;;;;;;;13.50;13.10;;;;;;;-141.02;100.00;107971.50;5113306;28;20203;-60
2023/06/10 04:33:18;;;;;;;13.23;12.82;;;;;;;-141.02;100.00;107971.50;5113241;28;20735;-57
2023/06/10 04:35:47;;;;;;;11.55;11.25;;;;;;;-141.02;100.00;107971.50;5113458;28;20193;-63
2023/06/10 04:38:14;;;;;;;11.70;11.40;;;;;;;-141.02;100.00;107971.50;5112894;28;20218;-57
2023/06/10 04:40:41;;;;;;;11.45;11.15;;;;;;;-141.02;100.00;107971.50;5112767;28;20673;-64
2023/06/10 04:43:08;;;;;;;11.18;10.88;;;;;;;-141.02;100.00;107971.50;5112809;28;20805;-64
2023/06/10 04:45:36;;;;;;;10.13;9.82;;;;;;;-141.02;100.00;107971.50;5112986;28;20201;-64
2023/06/10 04:48:03;;;;;;;9.50;9.20;;;;;;;-141.02;100.00;107971.50;5113016;28;20246;-64
2023/06/10 04:50:32;;;;;;;10.23;9.93;;;;;;;-141.02;100.00;107971.50;5113291;28;20269;-57
2023/06/10 04:52:59;;;;;;;10.80;10.50;;;;;;;-141.02;100.00;107971.50;5112870;28;20193;-58
2023/06/10 04:55:26;;;;;;;10.90;10.60;;;;;;;-141.02;100.00;107971.50;5112572;28;20228;-58
2023/06/10 04:57:53;;;;;;;11.63;11.30;;;;;;;-141.02;100.00;107971.50;5112843;28;20193;-58
2023/06/10 05:00:22;;;;;;;12.90;12.50;;;;;;;-141.02;100.00;107971.50;5112530;28;20673;-64
2023/06/10 05:02:51;;;;;;;14.02;13.52;;;;;;;-141.02;100.00;107971.50;5112430;28;20702;-66
2023/06/10 05:05:19;;;;;;;17.35;16.65;;;;;;;-141.02;100.00;107971.50;5112780;28;20207;-59
2023/06/10 05:07:47;;;;;;;17.90;17.20;;;;;;;-141.02;100.00;107971.50;5111951;28;20193;-65
2023/06/10 05:10:14;;;;;;;19.38;18.50;;;;;;;-141.02;100.00;107971.50;5112758;28;20280;-65
2023/06/10 05:12:44;;;;;;;18.98;18.17;;;;;;;-141.02;100.00;107971.50;5113099;28;20201;-65
2023/06/10 05:15:11;;;;;;;17.48;16.77;;;;;;;-141.02;100.00;107971.50;5112686;28;20220;-65
2023/06/10 05:17:38;;;;;;;17.65;16.95;;;;;;;-141.02;100.00;107971.50;5112552;28;20193;-62
2023/06/10 05:20:08;;;;;;;21.10;20.15;;;;;;;-141.02;100.00;107971.50;5112725;28;20289;-65
2023/06/10 05:22:35;;;;;;;22.08;21.08;;;;;;;-141.02;100.00;107971.50;5112264;28;20769;-61
2023/06/10 05:25:04;;;;;;;22.48;21.48;;;;;;;-141.02;100.00;107971.50;5112595;28;20319;-58
2023/06/10 05:27:31;;;;;;;20.27;19.38;;;;;;;-141.02;100.00;107971.50;5112311;28;20675;-65
2023/06/10 05:29:58;;;;;;;20.50;19.60;;;;;;;-141.02;100.00;107971.50;5112616;28;20193;-65
2023/06/10 05:32:25;;;;;;;17.80;17.10;;;;;;;-141.02;100.00;107971.50;5112578;28;20232;-57
2023/06/10 05:34:52;;;;;;;17.30;16.60;;;;;;;-141.02;100.00;107971.50;5112473;28;20232;-62
2023/06/10 05:37:19;;;;;;;16.65;16.05;;;;;;;-141.02;100.00;107971.50;5112200;28;20694;-63
2023/06/10 05:39:46;;;;;;;17.23;16.63;;;;;;;-141.02;100.00;107971.50;5112152;28;20235;-63
2023/06/10 05:42:14;;;;;;;17.75;17.05;;;;;;;-141.02;100.00;107971.50;5112231;28;20332;-57
2023/06/10 05:44:41;;;;;;;17.60;16.90;;;;;;;-141.02;100.00;107971.50;5112093;28;20659;-61
2023/06/10 05:47:08;;;;;;;16.00;15.40;;;;;;;-141.02;100.00;107971.50;5112442;28;20311;-64
2023/06/10 05:49:35;;;;;;;15.20;14.70;;;;;;;-141.02;100.00;107971.50;5112400;28;20276;-57
2023/06/10 05:52:02;;;;;;;15.55;15.05;;;;;;;-141.02;100.00;107971.50;5112097;28;20189;-57
2023/06/10 05:54:29;;;;;;;16.27;15.68;;;;;;;-141.02;100.00;107971.50;5112389;28;20284;-57
2023/06/10 05:56:56;;;;;;;15.90;15.30;;;;;;;-141.02;100.00;107971.50;5111991;28;20194;-65
2023/06/10 05:59:24;;;;;;;16.83;16.23;;;;;;;-141.02;100.00;107971.50;5112073;28;20284;-65
2023/06/10 06:01:51;;;;;;;15.52;15.02;;;;;;;-141.02;100.00;107971.50;5112237;28;20300;-57
2023/06/10 06:04:18;;;;;;;15.50;15.00;;;;;;;-141.02;100.00;107971.50;5112307;28;20288;-61
2023/06/10 06:06:45;;;;;;;15.10;14.60;;;;;;;-141.02;100.00;107971.50;5111960;28;20190;-64
2023/06/10 06:09:12;;;;;;;15.23;14.73;;;;;;;-141.02;100.00;107971.50;5111887;28;20284;-64
2023/06/10 06:11:39;;;;;;;15.50;15.00;;;;;;;-141.02;100.00;107971.50;5112233;28;20372;-61
2023/06/10 06:14:06;;;;;;;15.15;14.65;;;;;;;-141.02;100.00;107971.50;5111913;28;20193;-64
2023/06/10 06:16:35;;;;;;;14.80;14.30;;;;;;;-141.02;100.00;107971.50;5112129;28;20196;-64
2023/06/10 06:19:02;;;;;;;14.70;14.20;;;;;;;-141.02;100.00;107971.50;5112858;28;20247;-65
2023/06/10 06:21:29;;;;;;;14.90;14.40;;;;;;;-141.02;100.00;107971.50;5115342;28;20283;-60
2023/06/10 06:23:56;;;;;;;14.77;14.27;;;;;;;-141.02;100.00;107971.50;5115513;28;20679;-64
2023/06/10 06:26:23;;;;;;;32.60;30.70;;;;;;;-141.02;100.00;107971.50;5115318;28;20663;-64
2023/06/10 06:28:50;;;;;;;14.38;13.88;;;;;;;-141.02;100.00;107969.53;5115689;28;20225;-63
2023/06/10 06:31:17;;;;;;;13.48;13.07;;;;;;;-141.02;100.00;107971.50;5115280;28;20228;-65
2023/06/10 06:33:45;;;;;;;14.80;14.30;;;;;;;-141.02;100.00;107969.53;5115203;28;20197;-62
2023/06/10 06:36:12;;;;;;;14.57;14.07;;;;;;;-141.02;100.00;107969.53;5115516;28;20232;-64
2023/06/10 06:38:39;;;;;;;15.00;14.50;;;;;;;-141.02;100.00;107969.53;5115166;28;20284;-62
2023/06/10 06:41:06;;;;;;;15.50;14.90;;;;;;;-141.02;100.00;107969.53;5115109;28;20197;-65
2023/06/10 06:43:33;;;;;;;14.75;14.25;;;;;;;-141.02;100.00;107969.53;5114742;28;20328;-66
2023/06/10 06:46:00;;;;;;;14.40;13.90;;;;;;;-141.02;100.00;107969.53;5114957;28;20641;-65
2023/06/10 06:48:27;;;;;;;14.23;13.73;;;;;;;-141.02;100.00;107969.53;5114975;28;20279;-57
2023/06/10 06:50:57;;;;;;;14.27;13.77;;;;;;;-141.02;100.00;107719.09;5115175;28;20228;-63
2023/06/10 06:53:24;;;;;;;14.30;13.80;;;;;;;-141.02;100.00;107719.09;5114963;28;20254;-61
2023/06/10 06:55:51;;;;;;;13.85;13.35;;;;;;;-141.02;100.00;107719.09;5114751;28;20224;-65
2023/06/10 06:58:19;;;;;;;13.85;13.35;;;;;;;-141.02;100.00;107719.09;5115003;28;20193;-65
2023/06/10 07:00:46;;;;;;;13.60;13.20;;;;;;;-141.02;100.00;107719.09;5115095;27;20213;-65
2023/06/10 07:03:13;;;;;;;14.13;13.63;;;;;;;-141.02;100.00;107719.09;5114904;28;20315;-65
2023/06/10 07:05:40;;;;;;;14.32;13.82;;;;;;;-141.02;100.00;107719.09;5114882;28;20278;-58
2023/06/10 07:08:08;;;;;;;14.27;13.77;;;;;;;-141.02;100.00;107468.69;5114791;28;20240;-65
2023/06/10 07:10:35;;;;;;;12.70;12.30;;;;;;;-141.02;100.00;107468.69;5114565;28;20193;-65
2023/06/10 07:13:02;;;;;;;13.23;12.82;;;;;;;-141.02;100.00;107719.09;5114470;28;20194;-57
2023/06/10 07:15:29;;;;;;;13.40;13.00;;;;;;;-141.02;100.00;107719.09;5114414;28;20197;-65
2023/06/10 07:17:56;;;;;;;14.00;13.55;;;;;;;-141.02;100.00;107719.09;5114700;28;20224;-60
2023/06/10 07:20:23;;;;;;;14.02;13.52;;;;;;;-141.02;100.00;107719.09;5114826;28;20193;-58
2023/06/10 07:22:50;;;;;;;14.65;14.15;;;;;;;-141.02;100.00;107719.09;5114515;28;20257;-58
2023/06/10 07:25:19;;;;;;;14.45;13.85;;;;;;;-141.02;100.00;107719.09;5114437;28;20673;-61
2023/06/10 07:27:45;;;;;;;14.75;14.05;;;;;;;-141.02;100.00;107468.69;5114538;27;20201;-67
2023/06/10 07:30:14;;;;;;;15.15;14.45;;;;;;;-141.02;100.00;107468.69;5113701;28;20238;-66
2023/06/10 07:32:41;;;;;;;15.27;14.48;;;;;;;-141.02;100.00;107468.69;5114073;27;20229;-59
2023/06/10 07:35:10;;;;;;;15.30;14.50;;;;;;;-141.02;100.00;107468.69;5114383;28;20225;-67
2023/06/10 07:37:37;;;;;;;15.27;14.38;;;;;;;-141.02;100.00;107218.31;5114295;28;20197;-67
2023/06/10 07:40:05;;;;;;;15.77;14.88;;;;;;;-141.02;100.00;106967.91;5114474;28;20221;-59
2023/06/10 07:42:36;;;;;;;16.50;15.50;;;;;;;-141.02;96.24;106216.91;5113694;28;20224;-66
2023/06/10 07:45:03;;;;;;;17.00;16.00;;;;;;;-141.02;95.78;105466.03;5114228;28;20269;-59
2023/06/10 07:47:31;;;;;;;16.48;15.57;;;;;;;-141.02;100.00;105716.31;5113813;28;20189;-61
2023/06/10 07:49:58;;;;;;;15.93;15.02;;;;;;;-141.02;100.00;105466.03;5113738;28;20197;-59
2023/06/10 07:52:25;;;;;;;16.08;15.18;;;;;;;-141.02;98.55;105716.31;5114223;28;20200;-66
2023/06/10 07:54:53;;;;;;;16.10;15.20;;;;;;;-141.02;99.66;105466.03;5113983;28;20194;-67
2023/06/10 07:57:20;;;;;;;16.50;15.50;;;;;;;-141.02;93.53;105215.78;5113927;28;20568;-65
2023/06/10 07:59:48;;;;;;;16.65;15.65;;;;;;;-141.02;89.83;104965.56;5113569;28;20670;-67
2023/06/10 08:02:16;;;;;;;16.27;15.30;;;;;;;-141.02;90.16;104965.56;5113706;28;20235;-59
2023/06/10 08:04:43;;;;;;;17.65;16.45;;;;;;;-141.02;82.25;103964.81;5113461;28;20267;-58
2023/06/10 08:07:10;;;;;;;17.92;16.63;;;;;;;-141.02;80.34;103214.44;5113371;28;20233;-64
2023/06/10 08:09:37;;;;;;;18.02;16.73;;;;;;;-141.02;77.71;102214.16;5113984;28;20229;-67
2023/06/10 08:12:05;;;;;;;18.00;16.80;;;;;;;-141.02;83.65;101214.22;5113342;28;20199;-59
2023/06/10 08:14:32;;;;;;;16.33;15.40;;;;;;;-141.02;87.07;102464.22;5113285;28;20284;-61
2023/06/10 08:17:00;;;;;;;16.90;15.90;;;;;;;-141.02;89.15;103214.44;5113586;28;20246;-67
2023/06/10 08:19:27;;;;;;;17.30;16.20;;;;;;;-141.02;87.01;102714.25;5113436;28;20221;-66
2023/06/10 08:21:54;;;;;;;17.77;16.67;;;;;;;-141.02;80.06;101464.19;5113415;28;20280;-66
2023/06/10 08:24:21;;;;;;;17.80;16.70;;;;;;;-141.02;84.56;101964.16;5113250;28;20197;-66
2023/06/10 08:26:48;;;;;;;17.80;16.70;;;;;;;-141.02;86.26;101464.19;5113354;28;20197;-60
2023/06/10 08:29:15;;;;;;;17.75;16.75;;;;;;;-141.02;84.51;101464.19;5113285;28;20225;-68
2023/06/10 08:31:43;;;;;;;18.10;17.10;;;;;;;-141.02;83.74;100214.53;5112985;28;20228;-67
2023/06/10 08:34:12;;;;;;;18.50;17.40;;;;;;;-141.02;83.93;99964.66;5113244;28;20197;-62
2023/06/10 08:36:39;;;;;;;17.60;16.60;;;;;;;-141.02;86.50;99964.66;5112868;28;20189;-66
2023/06/10 08:39:06;;;;;;;17.48;16.58;;;;;;;-141.02;84.66;100214.53;5113227;28;20280;-66
2023/06/10 08:41:38;;;;;;;17.40;16.50;;;;;;;-141.02;86.30;99964.66;5112083;28;20197;-60
2023/06/10 08:44:13;;;;;;;18.10;17.10;;;;;;;-141.02;85.71;100464.44;5112671;28;20320;-67
2023/06/10 08:46:46;;;;;;;17.88;16.88;;;;;;;-141.02;86.51;100214.53;5113022;28;20199;-67
2023/06/10 08:49:20;;;;;;;17.30;16.40;;;;;;;-141.02;83.70;99464.97;5112703;28;20185;-67
2023/06/10 08:51:51;;;;;;;17.55;16.65;;;;;;;-141.02;85.42;99215.16;5112707;28;20186;-66
2023/06/10 08:54:22;;;;;;;18.38;17.38;;;;;;;-141.02;85.33;99215.16;5113054;28;20301;-66
2023/06/10 08:56:51;;;;;;;18.33;17.33;;;;;;;-141.02;86.06;98465.78;5112943;28;20266;-67
2023/06/10 08:59:20;;;;;;;17.45;16.45;;;;;;;-141.02;86.28;98965.34;5112811;28;20196;-67
2023/06/10 09:01:48;;;;;;;18.15;17.25;;;;;;;-141.02;83.85;99714.81;5112496;28;20621;-64
2023/06/10 09:04:17;;;;;;;19.00;17.90;;;;;;;-141.02;79.56;99464.97;5112802;28;20313;-67
2023/06/10 09:06:45;;;;;;;19.20;18.10;;;;;;;-141.02;80.43;100464.44;5112432;28;20201;-61
2023/06/10 09:09:14;;;;;;;18.55;17.45;;;;;;;-141.02;77.81;100714.34;5112739;28;20199;-67
2023/06/10 09:11:43;;;;;;;19.77;18.67;;;;;;;-141.02;71.55;99464.97;5112795;28;20204;-64
2023/06/10 09:14:11;;;;;;;19.90;18.80;;;;;;;-141.02;73.90;99215.16;5112748;28;20275;-67
2023/06/10 09:16:39;;;;;;;20.13;18.92;;;;;;;-141.02;68.46;98465.78;5112401;28;20228;-67
2023/06/10 09:19:07;;;;;;;20.35;19.15;;;;;;;-141.02;67.11;97217.22;5112715;28;20224;-67
2023/06/10 09:21:36;;;;;;;20.45;19.25;;;;;;;-141.02;72.71;97966.31;5112848;28;20197;-59
2023/06/10 09:24:04;;;;;;;24.63;22.75;;;;;;;-141.02;68.64;97217.22;5112573;28;20229;-66
2023/06/10 09:26:32;;;;;;;21.23;20.02;;;;;;;-141.02;66.55;95969.13;5112585;28;20284;-62
2023/06/10 09:29:05;;;;;;;20.95;19.75;;;;;;;-141.02;65.08;95470.00;5112436;28;20651;-67
2023/06/10 09:31:32;;;;;;;20.65;19.55;;;;;;;-141.02;73.93;96717.94;5112504;28;20566;-59
2023/06/10 09:34:07;;;;;;;21.00;19.80;;;;;;;-141.02;72.22;96967.56;5112274;28;20240;-62
2023/06/10 09:36:37;;;;;;;22.30;21.00;;;;;;;-141.02;62.57;95220.47;5112305;28;20646;-67
2023/06/10 09:39:05;;;;;;;22.60;21.27;;;;;;;-141.02;61.80;91728.88;5112577;28;20272;-67
2023/06/10 09:41:35;;;;;;;22.83;21.45;;;;;;;-141.02;59.83;91479.63;5112224;28;20201;-66
2023/06/10 09:44:03;;;;;;;22.23;20.92;;;;;;;-141.02;62.88;92726.13;5112213;28;20743;-62
2023/06/10 09:46:33;;;;;;;22.27;20.88;;;;;;;-141.02;59.16;92476.78;5112554;28;20197;-62
2023/06/10 09:49:00;;;;;;;23.67;22.27;;;;;;;-141.02;58.55;90482.72;5113287;28;20193;-67
2023/06/10 09:51:27;;;;;;;23.40;22.00;;;;;;;-141.02;61.15;90233.56;5112102;28;20193;-63
2023/06/10 09:53:56;;;;;;;23.40;22.00;;;;;;;-141.02;59.64;88987.97;5114595;28;20201;-67
2023/06/10 09:56:35;;;;;;;24.60;23.10;;;;;;;-141.02;61.26;86747.00;5116093;28;20235;-67
2023/06/10 09:59:02;;;;;;;24.38;22.98;;;;;;;-141.02;59.76;85502.66;5116017;28;20200;-60
2023/06/10 10:01:29;;;;;;;24.55;23.15;;;;;;;-141.02;61.60;84010.03;5116257;28;20220;-66
2023/06/10 10:03:56;;;;;;;23.95;22.55;;;;;;;-141.02;64.42;84010.03;5116043;28;20224;-60
2023/06/10 10:06:23;;;;;;;24.00;22.60;;;;;;;-141.02;68.02;83015.31;5115842;28;20228;-66
2023/06/10 10:08:52;;;;;;;23.90;22.50;;;;;;;-141.02;68.04;81026.72;5116107;28;20624;-59
2023/06/10 10:11:22;;;;;;;22.35;21.05;;;;;;;-141.02;68.41;80778.25;5116093;28;20196;-64
2023/06/10 10:13:50;;;;;;;22.80;21.50;;;;;;;-141.02;70.47;81772.31;5116008;28;20329;-64
2023/06/10 10:16:20;;;;;;;22.30;21.00;;;;;;;-141.02;70.57;82269.47;5115637;28;20193;-64
2023/06/10 10:18:53;;;;;;;21.48;20.17;;;;;;;-141.02;69.95;82269.47;5116705;28;20647;-64
2023/06/10 10:21:25;;;;;;;21.15;19.85;;;;;;;-141.02;68.08;82766.69;5115877;28;20220;-64
2023/06/10 10:24:00;;;;;;;23.05;21.65;;;;;;;-141.02;67.58;83263.97;5115659;28;20221;-58
2023/06/10 10:26:29;;;;;;;23.02;21.63;;;;;;;-141.02;64.46;83015.31;5115738;28;20625;-62
2023/06/10 10:29:06;;;;;;;23.80;22.40;;;;;;;-141.02;64.41;83512.63;5115436;28;20189;-64
2023/06/10 10:31:36;;;;;;;23.60;22.20;;;;;;;-141.02;65.57;86000.34;5115351;28;20654;-65
2023/06/10 10:34:07;;;;;;;24.23;22.73;;;;;;;-141.02;60.91;84507.50;5115630;28;20560;-63
2023/06/10 10:36:35;;;;;;;22.63;21.23;;;;;;;-141.02;60.16;85751.50;5115671;28;20189;-63
2023/06/10 10:39:05;;;;;;;23.70;22.25;;;;;;;-141.02;61.43;86498.09;5115139;28;20581;-57
2023/06/10 10:41:35;;;;;;;24.08;22.58;;;;;;;-141.02;57.92;86000.34;5115147;28;20289;-61
2023/06/10 10:44:05;;;;;;;24.38;22.88;;;;;;;-141.02;56.67;85253.84;5114945;28;20324;-58
2023/06/10 10:46:42;;;;;;;25.05;23.45;;;;;;;-141.02;56.34;85005.03;5115067;28;20663;-60
2023/06/10 10:49:11;;;;;;;26.73;25.23;;;;;;;-141.02;56.77;84258.75;5115344;28;20185;-63
2023/06/10 10:51:38;;;;;;;26.30;24.80;;;;;;;-141.02;55.53;83015.31;5114959;28;20574;-63
2023/06/10 10:54:13;;;;;;;26.60;25.10;;;;;;;-141.02;57.23;83015.31;5115176;28;20275;-65
2023/06/10 10:57:11;;;;;;;27.17;25.67;;;;;;;-141.02;54.27;80778.25;5115102;28;20204;-63
2023/06/10 10:59:45;;;;;;;23.50;22.10;;;;;;;-141.02;57.27;84010.03;5115071;28;20185;-64
2023/06/10 11:02:18;;;;;;;23.50;22.10;;;;;;;-141.02;53.80;83263.97;5115041;28;20200;-61
2023/06/10 11:04:47;;;;;;;24.85;23.45;;;;;;;-141.02;57.72;82518.06;5113755;28;20213;-64
2023/06/10 11:07:15;;;;;;;26.63;25.13;;;;;;;-141.02;54.09;78790.94;5114811;28;20193;-57
2023/06/10 11:09:59;;;;;;;24.38;22.88;;;;;;;-141.02;55.67;79784.44;5114951;28;20236;-63
2023/06/10 11:12:41;;;;;;;24.67;23.27;;;;;;;-141.02;53.34;78542.63;5114913;28;20207;-58